Time,TemperatureF,DewpointF,PressureIn,WindDirection,WindDirectionDegrees,WindSpeedMPH,WindSpeedGustMPH,Humidity,HourlyPrecipIn,Conditions,Clouds,dailyrainin,SoftwareType,DateUTC
2013-03-07 00:00:00,38.3,38.3,29.85,ENE,78,15.0,16.0,100,0.00,,,0.00,Wunderground v.1.15,2013-03-07 05:00:00,
2013-03-07 00:05:00,38.2,38.2,29.85,ENE,64,17.0,19.0,100,0.00,,,0.00,Wunderground v.1.15,2013-03-07 05:05:00,
2013-03-07 00:14:00,38.2,38.2,29.84,NE,41,16.0,17.0,100,0.00,,,0.00,Wunderground v.1.15,2013-03-07 05:14:00,
2013-03-07 00:20:00,38.2,38.2,29.84,NE,55,15.0,15.0,100,0.00,,,0.00,Wunderground v.1.15,2013-03-07 05:20:00,
2013-03-07 00:30:00,38.0,38.0,29.83,ENE,61,14.0,14.0,100,0.00,,,0.00,Wunderground v.1.15,2013-03-07 05:30:00,
2013-03-07 00:39:00,38.0,38.0,29.83,ENE,61,13.0,13.0,100,0.00,,,0.00,Wunderground v.1.15,2013-03-07 05:39:00,
2013-03-07 00:45:00,37.9,37.9,29.83,NE,52,14.0,17.0,100,0.00,,,0.00,Wunderground v.1.15,2013-03-07 05:45:00,
2013-03-07 00:50:00,38.0,38.0,29.83,ENE,59,15.0,15.0,100,0.00,,,0.00,Wunderground v.1.15,2013-03-07 05:50:00,
2013-03-07 01:00:00,37.9,37.9,29.82,ENE,68,15.0,15.0,100,0.00,,,0.00,Wunderground v.1.15,2013-03-07 06:00:00,
2013-03-07 01:05:00,37.8,37.8,29.82,ENE,59,14.0,18.0,100,0.00,,,0.00,Wunderground v.1.15,2013-03-07 06:05:00,
2013-03-07 01:14:00,37.6,37.6,29.82,East,82,17.0,31.0,100,0.00,,,0.00,Wunderground v.1.15,2013-03-07 06:14:00,
2013-03-07 01:20:00,37.8,37.8,29.82,ENE,62,17.0,19.0,100,0.00,,,0.00,Wunderground v.1.15,2013-03-07 06:20:00,
2013-03-07 01:30:00,37.8,37.8,29.81,ENE,69,16.0,30.0,100,0.00,,,0.00,Wunderground v.1.15,2013-03-07 06:30:00,
2013-03-07 01:35:00,37.6,37.6,29.81,NE,55,16.0,30.0,100,0.00,,,0.00,Wunderground v.1.15,2013-03-07 06:35:00,
2013-03-07 01:45:00,37.6,37.6,29.80,East,93,16.0,19.0,100,0.00,,,0.00,Wunderground v.1.15,2013-03-07 06:45:00,
2013-03-07 01:50:00,37.5,37.5,29.80,ENE,62,15.0,16.0,100,0.00,,,0.00,Wunderground v.1.15,2013-03-07 06:50:00,
2013-03-07 01:55:00,37.5,37.5,29.80,ENE,68,14.0,17.0,100,0.00,,,0.00,Wunderground v.1.15,2013-03-07 06:55:00,
2013-03-07 02:05:00,37.3,37.3,29.79,ENE,71,13.0,17.0,100,0.00,,,0.00,Wunderground v.1.15,2013-03-07 07:05:00,
2013-03-07 02:10:00,37.5,37.5,29.79,NE,38,11.0,12.0,100,0.00,,,0.00,Wunderground v.1.15,2013-03-07 07:10:00,
2013-03-07 02:20:00,37.5,37.5,29.78,NNE,27,13.0,13.0,100,0.00,,,0.00,Wunderground v.1.15,2013-03-07 07:20:00,
2013-03-07 02:29:00,37.5,37.5,29.78,ENE,64,14.0,16.0,100,0.00,,,0.00,Wunderground v.1.15,2013-03-07 07:29:00,
2013-03-07 02:35:00,37.5,37.5,29.78,ENE,61,15.0,16.0,100,0.00,,,0.00,Wunderground v.1.15,2013-03-07 07:35:00,
2013-03-07 02:45:00,37.6,37.6,29.77,ENE,58,16.0,16.0,100,0.00,,,0.00,Wunderground v.1.15,2013-03-07 07:45:00,
2013-03-07 02:54:00,37.5,37.5,29.77,ENE,76,17.0,17.0,100,0.00,,,0.00,Wunderground v.1.15,2013-03-07 07:54:00,
2013-03-07 03:00:00,37.5,37.5,29.77,NE,34,18.0,21.0,100,0.00,,,0.00,Wunderground v.1.15,2013-03-07 08:00:00,
2013-03-07 03:05:00,37.5,37.5,29.77,ENE,74,17.0,21.0,100,0.00,,,0.00,Wunderground v.1.15,2013-03-07 08:05:00,
2013-03-07 03:15:00,37.5,37.5,29.77,NE,54,14.0,16.0,100,0.00,,,0.00,Wunderground v.1.15,2013-03-07 08:15:00,
2013-03-07 03:20:00,37.3,37.3,29.77,ENE,72,14.0,14.0,100,0.00,,,0.00,Wunderground v.1.15,2013-03-07 08:20:00,
2013-03-07 03:30:00,37.3,37.3,29.77,NE,55,16.0,16.0,100,0.00,,,0.00,Wunderground v.1.15,2013-03-07 08:30:00,
2013-03-07 03:35:00,37.5,37.5,29.77,ENE,61,15.0,17.0,100,0.00,,,0.00,Wunderground v.1.15,2013-03-07 08:35:00,
2013-03-07 03:40:00,37.3,37.3,29.77,ENE,66,15.0,16.0,100,0.00,,,0.00,Wunderground v.1.15,2013-03-07 08:40:00,
2013-03-07 03:50:00,37.3,37.3,29.77,NE,51,13.0,18.0,100,0.00,,,0.00,Wunderground v.1.15,2013-03-07 08:50:00,
2013-03-07 04:00:00,37.3,37.3,29.78,ENE,62,16.0,16.0,100,0.00,,,0.00,Wunderground v.1.15,2013-03-07 09:00:00,
2013-03-07 04:05:00,37.2,37.2,29.78,NE,38,16.0,19.0,100,0.00,,,0.00,Wunderground v.1.15,2013-03-07 09:05:00,
2013-03-07 04:10:00,37.2,37.2,29.78,ENE,59,16.0,16.0,100,0.00,,,0.00,Wunderground v.1.15,2013-03-07 09:10:00,
2013-03-07 04:20:00,37.3,37.3,29.78,East,82,14.0,14.0,100,0.00,,,0.00,Wunderground v.1.15,2013-03-07 09:20:00,
2013-03-07 04:35:00,37.0,37.0,29.78,ENE,64,15.0,20.0,100,0.00,,,0.00,Wunderground v.1.15,2013-03-07 09:35:00,
2013-03-07 04:45:00,37.0,37.0,29.78,NE,41,14.0,16.0,100,0.00,,,0.00,Wunderground v.1.15,2013-03-07 09:45:00,
2013-03-07 04:55:00,36.9,36.9,29.78,NE,41,14.0,19.0,100,0.00,,,0.00,Wunderground v.1.15,2013-03-07 09:55:00,
2013-03-07 05:05:00,36.9,36.9,29.78,ENE,75,15.0,21.0,100,0.00,,,0.00,Wunderground v.1.15,2013-03-07 10:05:00,
2013-03-07 05:15:00,37.0,37.0,29.78,East,89,13.0,29.0,100,0.00,,,0.00,Wunderground v.1.15,2013-03-07 10:15:00,
2013-03-07 05:20:00,36.9,36.9,29.78,ENE,66,14.0,14.0,100,0.00,,,0.00,Wunderground v.1.15,2013-03-07 10:20:00,
2013-03-07 05:30:00,37.0,37.0,29.78,ENE,78,14.0,21.0,100,0.00,,,0.00,Wunderground v.1.15,2013-03-07 10:30:00,
2013-03-07 05:40:00,37.0,37.0,29.78,ENE,69,13.0,15.0,100,0.00,,,0.00,Wunderground v.1.15,2013-03-07 10:40:00,
2013-03-07 05:45:00,37.0,37.0,29.78,NNE,26,13.0,15.0,100,0.00,,,0.00,Wunderground v.1.15,2013-03-07 10:45:00,
2013-03-07 05:55:00,37.0,37.0,29.78,ENE,59,13.0,14.0,100,0.00,,,0.00,Wunderground v.1.15,2013-03-07 10:55:00,
2013-03-07 06:00:00,37.0,37.0,29.78,ENE,72,12.0,13.0,100,0.00,,,0.00,Wunderground v.1.15,2013-03-07 11:00:00,
2013-03-07 06:05:00,37.2,37.2,29.78,ENE,64,13.0,13.0,100,0.00,,,0.00,Wunderground v.1.15,2013-03-07 11:05:00,
2013-03-07 06:15:00,37.2,37.2,29.78,NE,47,15.0,20.0,100,0.00,,,0.00,Wunderground v.1.15,2013-03-07 11:15:00,
2013-03-07 06:20:00,37.0,37.0,29.78,NE,47,14.0,14.0,100,0.00,,,0.00,Wunderground v.1.15,2013-03-07 11:20:00,
2013-03-07 06:25:00,37.0,37.0,29.78,ENE,61,13.0,14.0,100,0.00,,,0.00,Wunderground v.1.15,2013-03-07 11:25:00,
2013-03-07 06:35:00,37.2,37.2,29.78,ENE,66,15.0,20.0,100,0.00,,,0.00,Wunderground v.1.15,2013-03-07 11:35:00,
2013-03-07 06:45:00,37.3,37.3,29.79,ENE,57,14.0,18.0,100,0.00,,,0.00,Wunderground v.1.15,2013-03-07 11:45:00,
2013-03-07 06:50:00,37.5,37.5,29.79,ENE,71,12.0,16.0,100,0.00,,,0.00,Wunderground v.1.15,2013-03-07 11:50:00,
2013-03-07 07:00:00,37.3,37.3,29.78,ENE,64,15.0,17.0,100,0.00,,,0.00,Wunderground v.1.15,2013-03-07 12:00:00,
2013-03-07 07:10:00,37.6,37.6,29.78,NE,34,15.0,15.0,100,0.00,,,0.00,Wunderground v.1.15,2013-03-07 12:10:00,
2013-03-07 07:15:00,37.6,37.6,29.78,ENE,58,15.0,15.0,100,0.00,,,0.00,Wunderground v.1.15,2013-03-07 12:15:00,
2013-03-07 07:20:00,37.6,37.6,29.78,ENE,78,15.0,15.0,100,0.00,,,0.00,Wunderground v.1.15,2013-03-07 12:20:00,
2013-03-07 07:30:00,37.6,37.6,29.79,East,86,15.0,20.0,100,0.00,,,0.00,Wunderground v.1.15,2013-03-07 12:30:00,
2013-03-07 07:35:00,37.8,37.8,29.79,NE,51,16.0,20.0,100,0.00,,,0.00,Wunderground v.1.15,2013-03-07 12:35:00,
2013-03-07 07:45:00,37.6,37.6,29.79,ENE,65,16.0,26.0,100,0.00,,,0.00,Wunderground v.1.15,2013-03-07 12:45:00,
2013-03-07 07:50:00,37.8,37.8,29.79,ENE,66,15.0,15.0,100,0.00,,,0.00,Wunderground v.1.15,2013-03-07 12:50:00,
2013-03-07 08:00:00,37.8,37.8,29.79,NE,54,14.0,18.0,100,0.00,,,0.00,Wunderground v.1.15,2013-03-07 13:00:00,
2013-03-07 08:05:00,37.8,37.8,29.79,ENE,74,13.0,18.0,100,0.00,,,0.00,Wunderground v.1.15,2013-03-07 13:05:00,
2013-03-07 08:15:00,37.8,37.8,29.79,East,82,16.0,16.0,100,0.00,,,0.00,Wunderground v.1.15,2013-03-07 13:15:00,
2013-03-07 08:20:00,37.8,37.8,29.79,ENE,62,15.0,15.0,100,0.00,,,0.00,Wunderground v.1.15,2013-03-07 13:20:00,
2013-03-07 08:25:00,37.9,37.9,29.79,ENE,74,15.0,15.0,100,0.00,,,0.00,Wunderground v.1.15,2013-03-07 13:25:00,
2013-03-07 08:35:00,37.9,37.9,29.79,ENE,68,15.0,22.0,100,0.00,,,0.00,Wunderground v.1.15,2013-03-07 13:35:00,
2013-03-07 08:45:00,37.8,37.8,29.78,East,79,14.0,20.0,100,0.00,,,0.00,Wunderground v.1.15,2013-03-07 13:45:00,
2013-03-07 08:55:00,37.6,37.6,29.78,North,11,16.0,17.0,100,0.00,,,0.00,Wunderground v.1.15,2013-03-07 13:55:00,
2013-03-07 09:05:00,37.5,37.5,29.78,ENE,57,15.0,25.0,100,0.00,,,0.00,Wunderground v.1.15,2013-03-07 14:05:00,
2013-03-07 09:15:00,37.3,37.3,29.78,NE,55,13.0,14.0,100,0.00,,,0.00,Wunderground v.1.15,2013-03-07 14:15:00,
2013-03-07 09:25:00,37.2,37.2,29.78,NE,45,14.0,19.0,100,0.00,,,0.00,Wunderground v.1.15,2013-03-07 14:25:00,
2013-03-07 09:35:00,37.2,37.2,29.78,ENE,57,15.0,15.0,100,0.00,,,0.00,Wunderground v.1.15,2013-03-07 14:35:00,
2013-03-07 09:40:00,37.2,37.2,29.78,ENE,58,14.0,14.0,100,0.00,,,0.00,Wunderground v.1.15,2013-03-07 14:40:00,
2013-03-07 09:50:00,37.3,37.3,29.78,ENE,78,13.0,13.0,100,0.00,,,0.00,Wunderground v.1.15,2013-03-07 14:50:00,
2013-03-07 10:00:00,37.3,37.3,29.78,NE,47,15.0,22.0,100,0.00,,,0.00,Wunderground v.1.15,2013-03-07 15:00:00,
2013-03-07 10:05:00,37.3,37.3,29.78,ENE,78,15.0,22.0,100,0.00,,,0.00,Wunderground v.1.15,2013-03-07 15:05:00,
2013-03-07 10:10:00,37.2,37.2,29.78,NE,55,15.0,15.0,100,0.00,,,0.00,Wunderground v.1.15,2013-03-07 15:10:00,
2013-03-07 10:20:00,36.9,36.9,29.78,NE,44,15.0,20.0,100,0.00,,,0.00,Wunderground v.1.15,2013-03-07 15:20:00,
2013-03-07 10:30:00,36.3,36.3,29.79,East,89,17.0,17.0,100,0.00,,,0.00,Wunderground v.1.15,2013-03-07 15:30:00,
2013-03-07 10:35:00,36.2,36.2,29.79,ENE,71,16.0,17.0,100,0.00,,,0.00,Wunderground v.1.15,2013-03-07 15:35:00,
2013-03-07 10:45:00,36.3,36.3,29.78,ENE,64,14.0,18.0,100,0.00,,,0.00,Wunderground v.1.15,2013-03-07 15:45:00,
2013-03-07 10:50:00,36.3,36.3,29.78,NE,41,14.0,14.0,100,0.00,,,0.00,Wunderground v.1.15,2013-03-07 15:50:00,
2013-03-07 10:55:00,36.3,36.3,29.78,ENE,61,14.0,14.0,100,0.00,,,0.00,Wunderground v.1.15,2013-03-07 15:55:00,
2013-03-07 11:05:00,36.0,36.0,29.78,NNE,28,14.0,17.0,100,0.00,,,0.00,Wunderground v.1.15,2013-03-07 16:05:00,
2013-03-07 11:10:00,36.0,36.0,29.78,ENE,68,15.0,15.0,100,0.00,,,0.00,Wunderground v.1.15,2013-03-07 16:10:00,
2013-03-07 11:15:00,36.3,36.3,29.78,ENE,74,15.0,15.0,100,0.00,,,0.00,Wunderground v.1.15,2013-03-07 16:15:00,
2013-03-07 11:20:00,36.5,36.5,29.78,NE,52,14.0,17.0,100,0.00,,,0.00,Wunderground v.1.15,2013-03-07 16:20:00,
2013-03-07 11:30:00,36.6,36.6,29.78,NNE,14,14.0,14.0,100,0.00,,,0.00,Wunderground v.1.15,2013-03-07 16:30:00,
2013-03-07 11:40:00,36.6,36.6,29.78,ENE,59,14.0,14.0,100,0.00,,,0.00,Wunderground v.1.15,2013-03-07 16:40:00,
2013-03-07 11:50:00,36.8,36.8,29.78,NE,45,13.0,13.0,100,0.00,,,0.00,Wunderground v.1.15,2013-03-07 16:50:00,
2013-03-07 11:55:00,36.9,36.9,29.78,ENE,58,14.0,17.0,100,0.00,,,0.00,Wunderground v.1.15,2013-03-07 16:55:00,
2013-03-07 12:05:00,36.9,36.9,29.78,ESE,105,15.0,22.0,100,0.00,,,0.00,Wunderground v.1.15,2013-03-07 17:05:00,
2013-03-07 12:15:00,36.6,36.6,29.77,East,90,13.0,13.0,100,0.00,,,0.00,Wunderground v.1.15,2013-03-07 17:15:00,
2013-03-07 12:20:00,36.6,36.6,29.77,NE,54,13.0,17.0,100,0.00,,,0.00,Wunderground v.1.15,2013-03-07 17:20:00,
2013-03-07 12:30:00,36.5,36.5,29.77,ENE,69,13.0,13.0,100,0.00,,,0.00,Wunderground v.1.15,2013-03-07 17:30:00,
2013-03-07 12:40:00,36.5,36.5,29.77,NE,44,13.0,13.0,100,0.00,,,0.00,Wunderground v.1.15,2013-03-07 17:40:00,
2013-03-07 12:50:00,36.5,36.5,29.77,ENE,72,13.0,17.0,100,0.00,,,0.00,Wunderground v.1.15,2013-03-07 17:50:00,
2013-03-07 12:55:00,36.3,36.3,29.77,NE,52,14.0,17.0,100,0.00,,,0.00,Wunderground v.1.15,2013-03-07 17:55:00,
2013-03-07 13:05:00,36.2,36.2,29.77,ENE,62,14.0,17.0,100,0.00,,,0.00,Wunderground v.1.15,2013-03-07 18:05:00,
2013-03-07 13:15:00,36.2,36.2,29.77,NE,52,11.0,12.0,100,0.00,,,0.00,Wunderground v.1.15,2013-03-07 18:15:00,
2013-03-07 13:25:00,36.2,36.2,29.77,ENE,59,13.0,13.0,100,0.00,,,0.00,Wunderground v.1.15,2013-03-07 18:25:00,
2013-03-07 13:35:00,36.3,36.3,29.76,NE,55,13.0,14.0,100,0.00,,,0.00,Wunderground v.1.15,2013-03-07 18:35:00,
2013-03-07 13:45:00,36.3,36.3,29.76,ENE,72,13.0,17.0,100,0.00,,,0.00,Wunderground v.1.15,2013-03-07 18:45:00,
2013-03-07 13:50:00,36.2,36.2,29.76,ENE,64,12.0,14.0,100,0.00,,,0.00,Wunderground v.1.15,2013-03-07 18:50:00,
2013-03-07 13:55:00,36.2,36.2,29.76,NE,54,12.0,14.0,100,0.00,,,0.00,Wunderground v.1.15,2013-03-07 18:55:00,
2013-03-07 14:05:00,36.3,36.3,29.76,ENE,61,12.0,12.0,100,0.00,,,0.00,Wunderground v.1.15,2013-03-07 19:05:00,
2013-03-07 14:15:00,36.0,36.0,29.76,ENE,58,13.0,13.0,100,0.00,,,0.00,Wunderground v.1.15,2013-03-07 19:15:00,
2013-03-07 14:25:00,36.0,36.0,29.76,NE,50,13.0,17.0,100,0.00,,,0.00,Wunderground v.1.15,2013-03-07 19:25:00,
2013-03-07 14:30:00,36.2,36.2,29.77,ENE,61,13.0,13.0,100,0.00,,,0.00,Wunderground v.1.15,2013-03-07 19:30:00,
2013-03-07 14:40:00,35.9,35.9,29.77,ENE,68,12.0,13.0,100,0.00,,,0.00,Wunderground v.1.15,2013-03-07 19:40:00,
2013-03-07 14:50:00,35.9,35.9,29.77,ENE,65,13.0,19.0,100,0.00,,,0.00,Wunderground v.1.15,2013-03-07 19:50:00,
2013-03-07 15:00:00,35.9,35.9,29.77,NE,54,13.0,14.0,100,0.00,,,0.00,Wunderground v.1.15,2013-03-07 20:00:00,
2013-03-07 15:05:00,35.9,35.9,29.77,NE,41,13.0,14.0,100,0.00,,,0.00,Wunderground v.1.15,2013-03-07 20:05:00,
2013-03-07 15:10:00,35.9,35.9,29.77,ENE,74,14.0,24.0,100,0.00,,,0.00,Wunderground v.1.15,2013-03-07 20:10:00,
2013-03-07 15:20:00,35.9,35.9,29.77,NNE,28,13.0,13.0,100,0.00,,,0.00,Wunderground v.1.15,2013-03-07 20:20:00,
2013-03-07 15:30:00,35.9,35.9,29.77,NE,50,12.0,12.0,100,0.00,,,0.00,Wunderground v.1.15,2013-03-07 20:30:00,
2013-03-07 15:35:00,35.8,35.8,29.77,ENE,64,12.0,13.0,100,0.00,,,0.00,Wunderground v.1.15,2013-03-07 20:35:00,
2013-03-07 15:45:00,35.6,35.6,29.78,NE,47,12.0,12.0,100,0.00,,,0.00,Wunderground v.1.15,2013-03-07 20:45:00,
2013-03-07 15:50:00,35.6,35.6,29.78,ENE,58,11.0,14.0,100,0.00,,,0.00,Wunderground v.1.15,2013-03-07 20:50:00,
2013-03-07 16:00:00,35.6,35.6,29.78,NE,45,12.0,13.0,100,0.00,,,0.00,Wunderground v.1.15,2013-03-07 21:00:00,
2013-03-07 16:05:00,35.8,35.8,29.78,NNE,33,12.0,19.0,100,0.00,,,0.00,Wunderground v.1.15,2013-03-07 21:05:00,
2013-03-07 16:15:00,36.0,36.0,29.77,North,11,11.0,12.0,100,0.00,,,0.00,Wunderground v.1.15,2013-03-07 21:15:00,
2013-03-07 16:25:00,36.2,36.2,29.77,NE,50,13.0,16.0,100,0.00,,,0.00,Wunderground v.1.15,2013-03-07 21:25:00,
2013-03-07 16:30:00,36.2,36.2,29.78,NNE,33,13.0,14.0,100,0.00,,,0.00,Wunderground v.1.15,2013-03-07 21:30:00,
2013-03-07 16:40:00,35.9,35.9,29.78,East,93,13.0,15.0,100,0.00,,,0.00,Wunderground v.1.15,2013-03-07 21:40:00,
2013-03-07 16:50:00,36.2,36.2,29.77,ENE,62,13.0,13.0,100,0.00,,,0.00,Wunderground v.1.15,2013-03-07 21:50:00,
2013-03-07 16:55:00,36.3,36.3,29.77,NE,47,14.0,14.0,100,0.00,,,0.00,Wunderground v.1.15,2013-03-07 21:55:00,
2013-03-07 17:05:00,36.5,36.5,29.77,ENE,59,12.0,13.0,100,0.00,,,0.00,Wunderground v.1.15,2013-03-07 22:05:00,
2013-03-07 17:15:00,36.5,36.5,29.78,NNE,17,12.0,12.0,100,0.00,,,0.00,Wunderground v.1.15,2013-03-07 22:15:00,
2013-03-07 17:20:00,36.5,36.5,29.78,ENE,57,12.0,12.0,100,0.00,,,0.00,Wunderground v.1.15,2013-03-07 22:20:00,
2013-03-07 17:30:00,36.5,36.5,29.77,North,9,12.0,13.0,100,0.00,,,0.00,Wunderground v.1.15,2013-03-07 22:30:00,
2013-03-07 17:35:00,36.3,36.3,29.77,North,10,12.0,27.0,100,0.00,,,0.00,Wunderground v.1.15,2013-03-07 22:35:00,
2013-03-07 17:40:00,36.0,36.0,29.77,NE,51,13.0,13.0,100,0.00,,,0.00,Wunderground v.1.15,2013-03-07 22:40:00,
2013-03-07 17:50:00,36.0,36.0,29.77,ENE,61,13.0,13.0,100,0.00,,,0.00,Wunderground v.1.15,2013-03-07 22:50:00,
2013-03-07 18:00:00,36.2,36.2,29.79,ENE,64,13.0,13.0,100,0.00,,,0.00,Wunderground v.1.15,2013-03-07 23:00:00,
2013-03-07 18:05:00,36.0,36.0,29.79,NNE,13,13.0,25.0,100,0.00,,,0.00,Wunderground v.1.15,2013-03-07 23:05:00,
2013-03-07 18:15:00,35.8,35.8,29.79,NE,40,13.0,16.0,100,0.00,,,0.00,Wunderground v.1.15,2013-03-07 23:15:00,
2013-03-07 18:20:00,35.8,35.8,29.79,NE,55,13.0,13.0,100,0.00,,,0.00,Wunderground v.1.15,2013-03-07 23:20:00,
2013-03-07 18:25:00,35.8,35.8,29.79,ENE,61,12.0,13.0,100,0.00,,,0.00,Wunderground v.1.15,2013-03-07 23:25:00,
2013-03-07 18:35:00,35.9,35.9,29.79,NNE,24,13.0,22.0,100,0.00,,,0.00,Wunderground v.1.15,2013-03-07 23:35:00,
2013-03-07 18:45:00,36.2,36.2,29.79,NE,54,13.0,21.0,100,0.00,,,0.00,Wunderground v.1.15,2013-03-07 23:45:00,
2013-03-07 18:50:00,36.2,36.2,29.79,NE,54,12.0,12.0,100,0.00,,,0.00,Wunderground v.1.15,2013-03-07 23:50:00,
2013-03-07 19:00:00,36.2,36.2,29.80,ENE,66,11.0,28.0,100,0.00,,,0.00,Wunderground v.1.15,2013-03-08 00:00:00,
2013-03-07 19:05:00,36.2,36.2,29.80,NE,41,11.0,28.0,100,0.00,,,0.00,Wunderground v.1.15,2013-03-08 00:05:00,
2013-03-07 19:15:00,36.3,36.3,29.80,NE,44,12.0,17.0,100,0.00,,,0.00,Wunderground v.1.15,2013-03-08 00:15:00,
2013-03-07 19:25:00,36.5,36.5,29.80,ENE,59,12.0,12.0,100,0.00,,,0.00,Wunderground v.1.15,2013-03-08 00:25:00,
2013-03-07 19:30:00,36.6,36.6,29.80,NE,54,11.0,11.0,100,0.00,,,0.00,Wunderground v.1.15,2013-03-08 00:30:00,
2013-03-07 19:40:00,36.6,36.6,29.80,ENE,61,13.0,13.0,100,0.00,,,0.00,Wunderground v.1.15,2013-03-08 00:40:00,
2013-03-07 19:50:00,36.6,36.6,29.80,NE,41,12.0,12.0,100,0.00,,,0.00,Wunderground v.1.15,2013-03-08 00:50:00,
2013-03-07 20:00:00,36.5,36.5,29.80,ENE,58,12.0,12.0,100,0.00,,,0.00,Wunderground v.1.15,2013-03-08 01:00:00,
2013-03-07 20:05:00,36.6,36.6,29.80,ENE,66,12.0,12.0,100,0.00,,,0.00,Wunderground v.1.15,2013-03-08 01:05:00,
2013-03-07 20:15:00,36.9,36.9,29.80,NE,52,11.0,14.0,100,0.00,,,0.00,Wunderground v.1.15,2013-03-08 01:15:00,
2013-03-07 20:20:00,37.0,37.0,29.80,ENE,72,11.0,11.0,100,0.00,,,0.00,Wunderground v.1.15,2013-03-08 01:20:00,
2013-03-07 20:30:00,37.0,37.0,29.80,NNE,23,12.0,17.0,100,0.00,,,0.00,Wunderground v.1.15,2013-03-08 01:30:00,
2013-03-07 20:35:00,36.9,36.9,29.80,NNE,33,14.0,17.0,100,0.00,,,0.00,Wunderground v.1.15,2013-03-08 01:35:00,
2013-03-07 20:45:00,37.0,37.0,29.80,ENE,57,12.0,17.0,100,0.00,,,0.00,Wunderground v.1.15,2013-03-08 01:45:00,
2013-03-07 20:50:00,36.9,36.9,29.80,ENE,65,12.0,12.0,100,0.00,,,0.00,Wunderground v.1.15,2013-03-08 01:50:00,
2013-03-07 20:55:00,36.9,36.9,29.80,ENE,57,12.0,12.0,100,0.00,,,0.00,Wunderground v.1.15,2013-03-08 01:55:00,
2013-03-07 21:05:00,37.0,37.0,29.80,NE,35,12.0,18.0,100,0.00,,,0.00,Wunderground v.1.15,2013-03-08 02:05:00,
2013-03-07 21:15:00,37.0,37.0,29.79,ENE,66,13.0,13.0,100,0.00,,,0.00,Wunderground v.1.15,2013-03-08 02:15:00,
2013-03-07 21:20:00,36.9,36.9,29.79,NE,47,12.0,12.0,100,0.00,,,0.00,Wunderground v.1.15,2013-03-08 02:20:00,
2013-03-07 21:30:00,36.9,36.9,29.79,ENE,75,12.0,14.0,100,0.00,,,0.00,Wunderground v.1.15,2013-03-08 02:30:00,
2013-03-07 21:35:00,36.9,36.9,29.79,NE,54,13.0,17.0,100,0.00,,,0.00,Wunderground v.1.15,2013-03-08 02:35:00,
2013-03-07 21:40:00,37.0,37.0,29.79,NE,51,13.0,24.0,100,0.00,,,0.00,Wunderground v.1.15,2013-03-08 02:40:00,
2013-03-07 21:50:00,36.9,36.9,29.79,ENE,72,12.0,19.0,100,0.00,,,0.00,Wunderground v.1.15,2013-03-08 02:50:00,
2013-03-07 22:00:00,36.9,36.9,29.79,ENE,58,12.0,14.0,100,0.00,,,0.00,Wunderground v.1.15,2013-03-08 03:00:00,
2013-03-07 22:05:00,36.9,36.9,29.79,ENE,69,11.0,14.0,100,0.00,,,0.00,Wunderground v.1.15,2013-03-08 03:05:00,
2013-03-07 22:15:00,36.8,36.8,29.79,NE,45,12.0,12.0,100,0.00,,,0.00,Wunderground v.1.15,2013-03-08 03:15:00,
2013-03-07 22:25:00,36.5,36.5,29.79,ENE,58,13.0,14.0,100,0.00,,,0.00,Wunderground v.1.15,2013-03-08 03:25:00,
2013-03-07 22:35:00,36.5,36.5,29.78,ENE,61,12.0,12.0,100,0.00,,,0.00,Wunderground v.1.15,2013-03-08 03:35:00,
2013-03-07 22:45:00,36.3,36.3,29.78,ENE,69,12.0,16.0,100,0.00,,,0.00,Wunderground v.1.15,2013-03-08 03:45:00,
2013-03-07 22:55:00,36.2,36.2,29.78,NE,41,11.0,12.0,100,0.00,,,0.00,Wunderground v.1.15,2013-03-08 03:55:00,
2013-03-07 23:05:00,36.0,36.0,29.77,East,79,10.0,10.0,100,0.00,,,0.00,Wunderground v.1.15,2013-03-08 04:05:00,
2013-03-07 23:10:00,36.0,36.0,29.77,ENE,61,11.0,11.0,100,0.00,,,0.00,Wunderground v.1.15,2013-03-08 04:10:00,
2013-03-07 23:20:00,35.8,35.8,29.77,NE,54,11.0,11.0,100,0.00,,,0.00,Wunderground v.1.15,2013-03-08 04:20:00,
2013-03-07 23:30:00,35.5,35.5,29.76,NE,45,12.0,12.0,100,0.00,,,0.00,Wunderground v.1.15,2013-03-08 04:30:00,
2013-03-07 23:35:00,35.5,35.5,29.76,ENE,62,12.0,12.0,100,0.00,,,0.00,Wunderground v.1.15,2013-03-08 04:35:00,
2013-03-07 23:45:00,35.6,35.6,29.76,ENE,58,12.0,12.0,100,0.00,,,0.00,Wunderground v.1.15,2013-03-08 04:45:00,
2013-03-07 23:50:00,35.6,35.6,29.76,NE,38,12.0,12.0,100,0.00,,,0.00,Wunderground v.1.15,2013-03-08 04:50:00,